METAR Data
IDs: Format: Raw Decoded Include TAF

Data at: 1717 UTC 24 Jun 2019

KERV 241655Z AUTO 14010G14KT 7SM SCT025 BKN036 29/22 A2995 RMK AO2 LTG DSNT NE AND E T02890222
KERV 241635Z AUTO 13009KT 7SM BKN028 29/23 A2993 RMK AO2 LTG DSNT NE T02900233
KERV 241615Z AUTO 17012G16KT 10SM OVC028 29/23 A2993 RMK AO2 T02890230
KERV 241555Z AUTO 16009KT 7SM BKN025 BKN031 28/23 A2993 RMK AO2 LTG DSNT NE T02790231
KERV 241535Z AUTO 15010KT 7SM BKN030 28/23 A2993 RMK AO2 T02810232
KERV 241515Z AUTO 15010KT 7SM SCT018 BKN030 28/24 A2993 RMK AO2 T02750235
KERV 241455Z AUTO 15010KT 7SM BKN018 BKN023 BKN034 28/23 A2993 RMK AO2 T02760233
KERV 241435Z AUTO 16011G14KT 7SM BKN016 BKN023 28/24 A2993 RMK AO2 LTG DSNT NE T02770235
KERV 241415Z AUTO 14008KT 7SM SCT016 BKN023 BKN036 28/24 A2993 RMK AO2 T02750239
KERV 241355Z AUTO 15007KT 7SM SCT036 26/23 A2993 RMK AO2 T02610232
KERV 241335Z AUTO 14008KT 7SM SCT022 BKN036 26/23 A2992 RMK AO2 T02610231

KT82 241655Z AUTO 12006KT 5SM BR SCT007 BKN024 OVC036 26/24 A2996 RMK AO2 LTG DSNT E P0007 T02570238
KT82 241635Z AUTO 14005KT 2 1/2SM VCTSDZ SCT009 BKN016 OVC028 25/24 A2997 RMK AO2 LTG DSNT NE AND E P0007 T02500235
KT82 241615Z AUTO 13003KT 2 1/2SM RA BKN011 OVC018 25/23 A2996 RMK AO2 LTG DSNT NE AND E P0006 T02480228
KT82 241555Z AUTO 00000KT 7SM -RA OVC013 26/22 A2996 RMK AO2 LTG DSNT NE T02550223
KT82 241535Z AUTO 15005KT 7SM OVC015 26/22 A2995 RMK AO2 T02600221
KT82 241515Z AUTO 16009KT 10SM OVC013 27/22 A2994 RMK AO2 LTG DSNT NE T02650222
KT82 241455Z AUTO 16008G14KT 10SM OVC013 26/22 A2994 RMK AO2 LTG DSNT NE T02590221
KT82 241435Z AUTO 16008KT 10SM BKN015 OVC020 26/22 A2994 RMK AO2 LTG DSNT NE T02620222
KT82 241415Z AUTO 17007KT 10SM OVC015 27/22 A2993 RMK AO2 T02650222
KT82 241355Z AUTO 16007KT 10SM BKN015 27/22 A2993 RMK AO2 LTG DSNT NE T02670223
KT82 241335Z AUTO 17009KT 10SM SCT013 27/22 A2992 RMK AO2 LTG DSNT NE T02650222

KJCT 241651Z AUTO 12009KT 10SM BKN039 31/22 A2993 RMK AO2 SLP094 T03110217
KJCT 241551Z AUTO 11007KT 10SM SCT029 BKN035 29/22 A2993 RMK AO2 SLP095 T02940217
KJCT 241549Z AUTO VRB05KT 10SM SCT029 SCT035 29/22 A2993 RMK AO2
KJCT 241536Z AUTO 09007KT 10SM BKN029 OVC035 29/22 A2994 RMK AO2 T02940217
KJCT 241524Z AUTO 11006KT 10SM BKN032 29/22 A2995 RMK AO2 T02890217
KJCT 241515Z AUTO 12008KT 10SM BKN028 29/22 A2994 RMK AO2 T02940222
KJCT 241507Z AUTO 15007KT 10SM SCT028 29/22 A2994 RMK AO2 T02940222
KJCT 241451Z AUTO 17009KT 10SM BKN026 28/22 A2993 RMK AO2 SLP095 T02830222 53012
KJCT 241351Z AUTO 16008KT 8SM BKN020 28/23 A2991 RMK AO2 SLP088 T02780233
KJCT 241346Z AUTO 18007KT 8SM SCT020 28/23 A2991 RMK AO2
KJCT 241334Z AUTO 18009KT 8SM BKN020 27/23 A2990 RMK AO2 T02720233

K5C1 241655Z AUTO 15008KT 120V180 5SM BKN012 BKN017 OVC023 25/25 A2995 RMK AO1
K5C1 241635Z AUTO 17009G14KT 10SM BKN014 BKN026 OVC036 26/25 A2994 RMK AO1
K5C1 241615Z AUTO 15009KT 10SM SCT011 BKN016 BKN021 26/25 A2994 RMK AO1
K5C1 241555Z AUTO 16007G14KT 7SM SCT009 BKN015 BKN021 26/25 A2993 RMK AO1
K5C1 241535Z AUTO 17006KT 5SM OVC007 26/26 A2994 RMK AO1
K5C1 241515Z AUTO 16006KT 5SM BKN007 OVC032 25/25 A2994 RMK AO1
K5C1 241455Z AUTO 14008KT 4SM OVC005 24/24 A2994 RMK AO1
K5C1 241435Z AUTO 15007KT 3SM OVC005 24/24 A2994 RMK AO1
K5C1 241415Z AUTO 14006KT 2 1/2SM BKN007 OVC012 24/24 A2994 RMK AO1
K5C1 241355Z AUTO 16005KT 3SM BKN007 OVC017 24/24 A2994 RMK AO1
K5C1 241335Z AUTO 00000KT 3SM BKN009 OVC015 24/24 A2994 RMK AO1

KHDO 241651Z AUTO 15012KT 10SM SCT015 BKN021 OVC029 28/24 A2990 RMK AO2 SLP107 T02830239
KHDO 241551Z AUTO 15014KT 10SM FEW012 BKN022 OVC038 28/24 A2990 RMK AO2 SLP107 T02830239
KHDO 241533Z AUTO 13010KT 10SM FEW011 BKN030 OVC038 28/24 A2990 RMK AO2 T02780244
KHDO 241502Z AUTO 12010KT 10SM FEW011 BKN026 OVC033 28/24 A2991 RMK AO2 T02780239
KHDO 241451Z AUTO 11012KT 10SM FEW020 OVC031 27/24 A2991 RMK AO2 SLP111 T02720239 53024
KHDO 241412Z AUTO 10009KT 10SM SCT013 SCT017 OVC025 27/24 A2990 RMK AO2 T02720239
KHDO 241351Z AUTO 09008KT 10SM BKN011 OVC018 27/24 A2989 RMK AO2 SLP104 T02670239
KHDO 241336Z AUTO 12009KT 10SM BKN011 OVC017 27/24 A2987 RMK AO2 T02670244

KUVA 241659Z AUTO 13009KT 7SM SCT021 SCT030 BKN035 29/26 A2989 RMK AO2
KUVA 241640Z AUTO 14008KT 7SM SCT018 SCT025 BKN034 29/26 A2990 RMK AO2
KUVA 241619Z AUTO 13009G14KT 7SM SCT018 BKN025 OVC032 28/25 A2990 RMK AO2
KUVA 241559Z AUTO 09009KT 7SM SCT018 SCT023 OVC030 28/25 A2990 RMK AO2
KUVA 241539Z AUTO 10011G15KT 7SM BKN018 BKN025 BKN030 28/25 A2990 RMK AO2
KUVA 241519Z AUTO 08009KT 7SM SCT016 BKN024 28/26 A2990 RMK AO2
KUVA 241459Z AUTO 08009KT 7SM BKN016 BKN022 28/26 A2990 RMK AO2
KUVA 241439Z AUTO 08007KT 7SM SCT014 28/25 A2990 RMK AO2
KUVA 241419Z AUTO 12005KT 7SM CLR 27/25 A2988 RMK AO2
KUVA 241401Z AUTO 14006KT 7SM SCT006 26/25 A2987 RMK AO2
KUVA 241339Z AUTO 11006KT 5SM BR SCT004 26/25 A2986 RMK AO2
KUVA 241320Z AUTO 10007KT 4SM BR SCT004 25/25 A2986 RMK AO2

KSAT 241712Z COR 10018G23KT 5SM -RA BR SCT010 BKN015 OVC026 26/23 A2992 RMK AO2 P0000 T02610233
KSAT 241651Z 14011G19KT 7SM -RA BKN013 OVC024 27/24 A2991 RMK AO2 SLP109 P0000 T02720244
KSAT 241619Z 13014KT 7SM -RA BKN010 OVC019 27/24 A2991 RMK AO2 P0000 T02720244
KSAT 241551Z 14011KT 7SM -RA BKN009 OVC022 27/24 A2990 RMK AO2 SLP108 P0000 T02720244
KSAT 241451Z 13010KT 4SM -RA BR BKN007 OVC039 26/24 A2992 RMK AO2 SLP112 P0000 60000 T02560244 51020
KSAT 241425Z 12012KT 6SM -RA BR BKN008 OVC019 26/24 A2992 RMK AO2 P0000 T02560244
KSAT 241351Z 10011KT 7SM -RA BKN011 OVC031 26/24 A2991 RMK AO2 RAB12 SLP108 P0000 T02610244

KDWH 241653Z VRB06KT 10SM CLR 24/19 A2996 RMK AO2 SLP141 T02440194
KDWH 241553Z 11008KT 10SM FEW012 23/19 A2996 RMK AO2 SLP143 T02280194
KDWH 241453Z 11009G15KT 10SM FEW022 21/19 A2994 RMK AO2 RAE41 TSB02E17 SLP135 P0004 60016 T02060189 58019 $
KDWH 241435Z 08010KT 10SM -RA FEW026 SCT100 SCT120 20/19 A2994 RMK AO2 TSB02E17 P0004 T02000189 $
KDWH 241423Z 12013G20KT 7SM VCTS RA FEW070 BKN110 20/18 A2994 RMK AO2 TSB02E17 P0004 T02000183 $
KDWH 241408Z COR 12015KT 9SM -TSRA BKN110 20/18 A2994 RMK AO2 TSB02 PRESFR P0001 T02000183 $
KDWH 241353Z 10010G18KT 6SM RA BR BKN110 20/18 A2997 RMK AO2 LTG DSNT SW SLP146 P0007 T02000183 $

KUXL 241655Z AUTO 15007KT 10SM RA OVC095 22/20 A3003 RMK AO2 LTG DSNT SW T02150200
KUXL 241635Z AUTO 14005KT 10SM -RA SCT050 BKN095 OVC110 22/20 A3005 RMK AO2 T02150200
KUXL 241615Z AUTO 17004KT 10SM -RA SCT050 SCT055 OVC095 22/20 A3005 RMK AO2 T02150199
KUXL 241555Z AUTO 12005KT 10SM RA OVC085 21/20 A3006 RMK AO2 LTG DSNT SW T02100195
KUXL 241535Z AUTO 00000KT 10SM -RA SCT050 BKN085 OVC100 21/20 A3006 RMK AO2 T02110196
KUXL 241515Z AUTO 08005KT 10SM -RA BKN065 OVC080 21/20 A3007 RMK AO2 T02100195
KUXL 241455Z AUTO 08004KT 10SM -RA OVC065 21/20 A3007 RMK AO2 LTG DSNT SW T02100196
KUXL 241435Z AUTO 09005KT 10SM -RA OVC065 21/19 A3007 RMK AO2 LTG DSNT SW T02070193
KUXL 241415Z AUTO 08008KT 10SM -RA BKN075 OVC090 21/19 A3005 RMK AO2 LTG DSNT SW AND W T02060192
KUXL 241355Z AUTO 07006KT 10SM -RA OVC090 21/19 A3005 RMK AO2 LTG DSNT SW T02060190
KUXL 241335Z AUTO 09006KT 10SM -RA SCT060 BKN080 OVC110 21/19 A3006 RMK AO2 LTG DSNT SW T02060190

KAPS 241655Z AUTO 33003KT 10SM OVC070 26/20 A3005 RMK AO2 T02610199
KAPS 241635Z AUTO 10SM BKN070 26/19 A3004 RMK AO2 T02600191
KAPS 241615Z AUTO 10SM CLR 27/20 A3004 RMK AO2 T02660199
KAPS 241555Z AUTO 10SM SCT060 26/20 A3004 RMK AO2 T02600197
KAPS 241535Z AUTO 30004KT 10SM BKN065 BKN070 25/20 A3004 RMK AO2 LTG DSNT SE T02520203
KAPS 241515Z AUTO 29003KT 10SM SCT065 25/20 A3004 RMK AO2 T02470201
KAPS 241455Z AUTO 26003KT 10SM SCT065 SCT080 24/20 A3004 RMK AO2 T02430200
KAPS 241435Z AUTO 18005KT 10SM BKN065 BKN080 OVC095 24/20 A3005 RMK AO2 T02390201
KAPS 241415Z AUTO 00000KT 10SM SCT065 SCT080 BKN100 24/20 A3004 RMK AO2 T02350198
KAPS 241355Z AUTO 01003KT 10SM SCT090 SCT120 23/20 A3003 RMK AO2 LTG DSNT E T02320197
KAPS 241335Z AUTO 04005KT 10SM SCT065 SCT090 23/20 A3003 RMK AO2 LTG DSNT E AND S T02280197

KJKA 241655Z AUTO 25008KT 10SM SCT027 SCT046 SCT090 28/24 A3002 RMK AO2 T02750244
KJKA 241635Z AUTO 28014G27KT 10SM VCTS SCT023 BKN039 BKN090 29/22 A3003 RMK AO2 LTG DSNT SW AND NW T02870223
KJKA 241615Z AUTO 10SM BKN023 BKN030 BKN039 31/25 A3001 RMK AO2 T03090250
KJKA 241555Z AUTO 25012G20KT 10SM BKN023 BKN039 32/25 A3002 RMK AO2 LTG DSNT NW T03150253
KJKA 241535Z AUTO 25014G21KT 10SM BKN025 BKN031 BKN075 31/25 A3001 RMK AO2 T03110247
KJKA 241515Z AUTO 24014G21KT 10SM BKN023 BKN030 BKN075 31/25 A3001 RMK AO2 LTG DSNT N T03110249
KJKA 241455Z AUTO 25015G21KT 10SM SCT021 31/25 A3001 RMK AO2 T03090253
KJKA 241435Z AUTO 24011G18KT 10SM SCT044 31/25 A3001 RMK AO2 T03090252
KJKA 241415Z AUTO 23015G21KT 10SM BKN044 31/25 A3001 RMK AO2 T03050250
KJKA 241355Z AUTO 24016G20KT 10SM CLR 31/25 A3001 RMK AO2 T03050250
KJKA 241335Z AUTO 24014G19KT 10SM SCT024 SCT032 SCT041 30/25 A3001 RMK AO2 T03020250